sensor_id;sensor_type;location;lat;lon;timestamp;temperature;humidity
23495;DHT22;26107;50.832;2.950;2024-02-14T00:01:42;10.20;99.90
23495;DHT22;26107;50.832;2.950;2024-02-14T00:16:45;10.20;99.90
23495;DHT22;26107;50.832;2.950;2024-02-14T00:31:46;10.20;99.90
23495;DHT22;26107;50.832;2.950;2024-02-14T00:46:47;10.20;99.90
23495;DHT22;26107;50.832;2.950;2024-02-14T01:01:49;10.30;99.90
23495;DHT22;26107;50.832;2.950;2024-02-14T01:16:49;10.20;99.90
23495;DHT22;26107;50.832;2.950;2024-02-14T01:31:54;10.50;99.90
23495;DHT22;26107;50.832;2.950;2024-02-14T01:46:59;10.60;99.90
23495;DHT22;26107;50.832;2.950;2024-02-14T02:02:02;10.60;99.90
23495;DHT22;26107;50.832;2.950;2024-02-14T02:17:07;10.60;99.90
23495;DHT22;26107;50.832;2.950;2024-02-14T02:32:10;10.70;99.90
23495;DHT22;26107;50.832;2.950;2024-02-14T02:47:14;10.70;99.90
23495;DHT22;26107;50.832;2.950;2024-02-14T03:02:18;10.80;99.90
23495;DHT22;26107;50.832;2.950;2024-02-14T03:17:19;10.80;99.90
23495;DHT22;26107;50.832;2.950;2024-02-14T03:32:20;10.70;99.90
23495;DHT22;26107;50.832;2.950;2024-02-14T03:47:22;10.90;99.90
23495;DHT22;26107;50.832;2.950;2024-02-14T04:02:23;10.90;99.90
23495;DHT22;26107;50.832;2.950;2024-02-14T04:17:26;10.90;99.90
23495;DHT22;26107;50.832;2.950;2024-02-14T04:32:29;10.90;99.90
23495;DHT22;26107;50.832;2.950;2024-02-14T04:47:32;11.10;99.90
23495;DHT22;26107;50.832;2.950;2024-02-14T05:02:32;11.00;99.90
23495;DHT22;26107;50.832;2.950;2024-02-14T05:17:33;10.90;99.90
23495;DHT22;26107;50.832;2.950;2024-02-14T05:32:35;11.00;99.90
23495;DHT22;26107;50.832;2.950;2024-02-14T05:47:38;11.10;99.90
23495;DHT22;26107;50.832;2.950;2024-02-14T06:02:41;11.00;99.90
23495;DHT22;26107;50.832;2.950;2024-02-14T06:17:41;11.10;99.90
23495;DHT22;26107;50.832;2.950;2024-02-14T06:32:42;11.30;99.90
23495;DHT22;26107;50.832;2.950;2024-02-14T06:47:43;11.50;99.90
23495;DHT22;26107;50.832;2.950;2024-02-14T07:18:42;11.30;99.90
23495;DHT22;26107;50.832;2.950;2024-02-14T07:33:45;11.20;99.90
23495;DHT22;26107;50.832;2.950;2024-02-14T07:48:48;11.40;99.90
23495;DHT22;26107;50.832;2.950;2024-02-14T08:19:48;11.50;99.90
23495;DHT22;26107;50.832;2.950;2024-02-14T08:34:49;11.60;99.90
23495;DHT22;26107;50.832;2.950;2024-02-14T08:49:50;11.40;99.90
23495;DHT22;26107;50.832;2.950;2024-02-14T09:20:48;11.70;99.90
23495;DHT22;26107;50.832;2.950;2024-02-14T10:24:21;12.10;99.90
23495;DHT22;26107;50.832;2.950;2024-02-14T10:39:22;12.10;99.90
23495;DHT22;26107;50.832;2.950;2024-02-14T10:54:26;12.10;99.90
23495;DHT22;26107;50.832;2.950;2024-02-14T11:09:35;12.50;99.90
23495;DHT22;26107;50.832;2.950;2024-02-14T11:24:36;12.60;99.90
23495;DHT22;26107;50.832;2.950;2024-02-14T11:39:37;12.70;99.90
23495;DHT22;26107;50.832;2.950;2024-02-14T11:54:38;12.80;99.90
23495;DHT22;26107;50.832;2.950;2024-02-14T12:09:39;12.70;99.90
23495;DHT22;26107;50.832;2.950;2024-02-14T12:24:39;12.90;99.90
23495;DHT22;26107;50.832;2.950;2024-02-14T12:39:42;12.80;99.90
23495;DHT22;26107;50.832;2.950;2024-02-14T12:54:46;12.80;99.90
23495;DHT22;26107;50.832;2.950;2024-02-14T13:09:48;13.00;99.90
23495;DHT22;26107;50.832;2.950;2024-02-14T13:24:49;13.00;99.90
23495;DHT22;26107;50.832;2.950;2024-02-14T13:39:51;13.20;99.90
23495;DHT22;26107;50.832;2.950;2024-02-14T13:54:52;13.20;99.90
23495;DHT22;26107;50.832;2.950;2024-02-14T14:09:52;13.30;99.90
23495;DHT22;26107;50.832;2.950;2024-02-14T14:24:53;13.30;99.90
23495;DHT22;26107;50.832;2.950;2024-02-14T14:39:56;13.60;99.90
23495;DHT22;26107;50.832;2.950;2024-02-14T14:54:57;13.70;99.90
23495;DHT22;26107;50.832;2.950;2024-02-14T15:09:58;13.40;99.90
23495;DHT22;26107;50.832;2.950;2024-02-14T15:25:01;13.20;99.90
23495;DHT22;26107;50.832;2.950;2024-02-14T15:40:05;13.60;99.90
23495;DHT22;26107;50.832;2.950;2024-02-14T15:55:07;13.30;99.90
23495;DHT22;26107;50.832;2.950;2024-02-14T16:10:08;13.40;99.90
23495;DHT22;26107;50.832;2.950;2024-02-14T16:25:11;13.40;99.90
23495;DHT22;26107;50.832;2.950;2024-02-14T16:40:15;13.20;99.90
23495;DHT22;26107;50.832;2.950;2024-02-14T16:55:15;13.00;99.90
23495;DHT22;26107;50.832;2.950;2024-02-14T17:10:16;13.10;99.90
23495;DHT22;26107;50.832;2.950;2024-02-14T17:25:17;13.30;99.90
23495;DHT22;26107;50.832;2.950;2024-02-14T17:40:20;13.20;99.90
23495;DHT22;26107;50.832;2.950;2024-02-14T17:55:23;13.20;99.90
23495;DHT22;26107;50.832;2.950;2024-02-14T18:10:24;13.20;99.90
23495;DHT22;26107;50.832;2.950;2024-02-14T18:25:25;13.10;99.90
23495;DHT22;26107;50.832;2.950;2024-02-14T18:40:26;13.20;99.90
23495;DHT22;26107;50.832;2.950;2024-02-14T18:55:27;13.20;99.90
23495;DHT22;26107;50.832;2.950;2024-02-14T19:10:27;13.30;99.90
23495;DHT22;26107;50.832;2.950;2024-02-14T19:25:33;13.20;99.90
23495;DHT22;26107;50.832;2.950;2024-02-14T19:40:36;13.20;99.90
23495;DHT22;26107;50.832;2.950;2024-02-14T19:55:37;13.30;99.90
23495;DHT22;26107;50.832;2.950;2024-02-14T20:10:38;13.20;99.90
23495;DHT22;26107;50.832;2.950;2024-02-14T20:25:38;13.20;99.90
23495;DHT22;26107;50.832;2.950;2024-02-14T20:40:41;13.50;99.90
23495;DHT22;26107;50.832;2.950;2024-02-14T20:55:42;13.60;99.90
23495;DHT22;26107;50.832;2.950;2024-02-14T21:10:45;13.60;99.90
23495;DHT22;26107;50.832;2.950;2024-02-14T21:25:48;13.50;99.90
23495;DHT22;26107;50.832;2.950;2024-02-14T21:40:49;13.50;99.90
23495;DHT22;26107;50.832;2.950;2024-02-14T21:55:50;13.40;99.90
23495;DHT22;26107;50.832;2.950;2024-02-14T22:10:51;13.40;99.90
23495;DHT22;26107;50.832;2.950;2024-02-14T22:25:58;13.10;99.90
23495;DHT22;26107;50.832;2.950;2024-02-14T22:40:58;13.10;99.90
23495;DHT22;26107;50.832;2.950;2024-02-14T22:56:01;13.30;99.90
23495;DHT22;26107;50.832;2.950;2024-02-14T23:11:01;13.30;99.90
23495;DHT22;26107;50.832;2.950;2024-02-14T23:26:04;13.30;99.90
23495;DHT22;26107;50.832;2.950;2024-02-14T23:41:07;13.50;99.90
23495;DHT22;26107;50.832;2.950;2024-02-14T23:56:08;13.50;99.90
